createdAt,value
2022-12-05T00:02:35.372Z,23.88
2022-12-05T00:05:21.152Z,22.45
2022-12-05T00:08:06.773Z,22.60
2022-12-05T00:10:52.268Z,23.88
2022-12-05T00:13:40.388Z,24.27
2022-12-05T00:16:33.044Z,24.67
2022-12-05T00:19:19.205Z,23.58
2022-12-05T00:22:04.742Z,23.92
2022-12-05T00:24:50.489Z,22.52
2022-12-05T00:27:36.536Z,23.65
2022-12-05T00:30:21.856Z,23.75
2022-12-05T00:33:07.820Z,24.48
2022-12-05T00:35:53.616Z,22.70
2022-12-05T00:38:40.082Z,21.70
2022-12-05T00:41:28.272Z,22.05
2022-12-05T00:44:14.022Z,22.15
2022-12-05T00:46:59.547Z,21.33
2022-12-05T00:49:45.312Z,22.67
2022-12-05T00:52:31.484Z,23.05
2022-12-05T00:55:17.311Z,21.85
2022-12-05T00:58:02.756Z,23.30
2022-12-05T01:00:48.764Z,21.88
2022-12-05T01:03:34.872Z,20.40
2022-12-05T01:06:21.569Z,21.05
2022-12-05T01:09:07.507Z,19.77
2022-12-05T01:11:53.676Z,19.10
2022-12-05T01:14:39.064Z,19.05
2022-12-05T01:17:24.472Z,19.05
2022-12-05T01:20:10.495Z,18.80
2022-12-05T01:22:56.056Z,18.95
2022-12-05T01:25:44.040Z,19.67
2022-12-05T01:28:29.804Z,18.98
2022-12-05T01:31:29.150Z,20.25
2022-12-05T01:34:17.008Z,18.70
2022-12-05T01:37:03.113Z,19.45
2022-12-05T01:39:49.431Z,20.92
2022-12-05T01:42:35.135Z,21.27
2022-12-05T01:45:34.806Z,20.55
2022-12-05T01:48:33.345Z,21.75
2022-12-05T01:51:19.271Z,19.73
2022-12-05T01:54:06.066Z,20.10
2022-12-05T01:56:57.996Z,19.98
2022-12-05T01:59:51.914Z,20.60
2022-12-05T02:02:39.132Z,21.33
2022-12-05T02:05:36.265Z,20.45
2022-12-05T02:08:22.347Z,20.60
2022-12-05T02:11:09.410Z,20.38
2022-12-05T02:14:16.230Z,20.55
2022-12-05T02:17:10.007Z,19.08
2022-12-05T02:20:41.695Z,19.02
2022-12-05T02:23:51.876Z,19.45
2022-12-05T02:27:12.916Z,18.45
2022-12-05T02:30:06.925Z,18.88
2022-12-05T02:32:52.883Z,17.30
2022-12-05T02:36:03.970Z,19.00
2022-12-05T02:39:03.141Z,18.05
2022-12-05T02:41:51.615Z,18.75
2022-12-05T02:44:51.206Z,18.00
2022-12-05T02:47:46.551Z,17.98
2022-12-05T02:50:36.502Z,18.33
2022-12-05T02:53:24.134Z,16.83
2022-12-05T02:56:10.697Z,18.30
2022-12-05T02:58:56.748Z,19.48
2022-12-05T03:01:45.741Z,17.02
2022-12-05T03:04:32.002Z,18.40
2022-12-05T03:07:19.995Z,16.45
2022-12-05T03:10:08.031Z,16.33
2022-12-05T03:13:03.479Z,16.23
2022-12-05T03:15:53.452Z,15.85
2022-12-05T03:18:56.652Z,16.30
2022-12-05T03:22:10.572Z,16.40
2022-12-05T03:24:56.741Z,16.08
2022-12-05T03:28:12.803Z,16.33
2022-12-05T03:31:05.203Z,15.98
2022-12-05T03:33:58.432Z,16.65
2022-12-05T03:36:52.667Z,16.80
2022-12-05T03:39:42.104Z,16.92
2022-12-05T03:42:35.185Z,17.27
2022-12-05T03:45:31.984Z,16.52
2022-12-05T03:48:37.090Z,17.85
2022-12-05T03:51:28.671Z,16.95
2022-12-05T03:54:18.892Z,14.15
2022-12-05T03:57:23.055Z,15.05
2022-12-05T04:00:12.492Z,14.90
2022-12-05T04:03:08.000Z,15.68
2022-12-05T04:05:58.988Z,14.57
2022-12-05T04:08:49.639Z,14.45
2022-12-05T04:11:41.250Z,12.75
2022-12-05T04:14:44.902Z,14.95
2022-12-05T04:18:00.507Z,14.00
2022-12-05T04:21:07.575Z,13.75
2022-12-05T04:24:13.259Z,13.07
2022-12-05T04:27:22.976Z,13.27
2022-12-05T04:30:21.507Z,13.55
2022-12-05T04:33:11.499Z,13.95
2022-12-05T04:36:09.846Z,13.85
2022-12-05T04:39:01.865Z,13.20
2022-12-05T04:41:55.539Z,13.60
2022-12-05T04:47:45.640Z,14.03
2022-12-05T04:50:34.751Z,14.23
2022-12-05T04:53:22.278Z,14.15
2022-12-05T04:56:14.683Z,13.75
2022-12-05T04:59:00.467Z,14.82
2022-12-05T05:01:51.474Z,15.98
2022-12-05T05:04:43.364Z,16.52
2022-12-05T05:07:29.417Z,16.13
2022-12-05T05:10:19.805Z,16.65
2022-12-05T05:13:05.687Z,16.88
2022-12-05T05:15:51.601Z,17.08
2022-12-05T05:18:37.466Z,16.60
2022-12-05T05:21:35.317Z,17.25
2022-12-05T05:24:26.302Z,16.55
2022-12-05T05:27:11.839Z,16.73
2022-12-05T05:29:57.550Z,17.73
2022-12-05T05:32:43.548Z,17.30
2022-12-05T05:35:29.494Z,18.35
2022-12-05T05:38:15.112Z,18.80
2022-12-05T05:41:01.158Z,19.52
2022-12-05T05:43:47.288Z,19.80
2022-12-05T05:46:35.421Z,20.33
2022-12-05T05:49:21.086Z,20.40
2022-12-05T05:52:06.972Z,20.42
2022-12-05T05:54:52.789Z,18.90
2022-12-05T05:57:38.363Z,20.58
2022-12-05T06:00:24.230Z,17.77
2022-12-05T06:03:10.164Z,18.50
2022-12-05T06:06:00.358Z,17.48
2022-12-05T06:08:46.695Z,17.17
2022-12-05T06:11:32.205Z,18.17
2022-12-05T06:14:18.057Z,17.70
2022-12-05T06:17:03.783Z,18.83
2022-12-05T06:19:49.658Z,18.52
2022-12-05T06:22:35.067Z,17.65
2022-12-05T06:25:21.877Z,17.23
2022-12-05T06:28:07.328Z,17.45
2022-12-05T06:30:54.560Z,16.92
2022-12-05T06:33:39.890Z,17.35
2022-12-05T06:36:26.788Z,17.42
2022-12-05T06:39:12.269Z,17.27
2022-12-05T06:41:57.928Z,17.13
2022-12-05T06:44:43.626Z,17.10
2022-12-05T06:47:29.534Z,16.83
2022-12-05T06:50:15.349Z,16.92
2022-12-05T06:53:00.974Z,16.38
2022-12-05T06:56:01.335Z,16.30
2022-12-05T06:58:50.163Z,16.45
2022-12-05T07:01:39.166Z,14.85
2022-12-05T07:04:25.265Z,15.75
2022-12-05T07:07:11.187Z,17.17
2022-12-05T07:09:57.582Z,16.25
2022-12-05T07:12:43.455Z,17.42
2022-12-05T07:15:29.362Z,17.33
2022-12-05T07:18:16.383Z,17.00
2022-12-05T07:21:12.080Z,17.08
2022-12-05T07:23:58.739Z,17.38
2022-12-05T07:26:44.083Z,18.00
2022-12-05T07:29:30.156Z,17.50
2022-12-05T07:32:15.714Z,17.30
2022-12-05T07:35:01.674Z,16.30
2022-12-05T07:37:47.118Z,17.42
2022-12-05T07:40:33.101Z,17.13
2022-12-05T07:43:18.725Z,16.92
2022-12-05T07:46:06.615Z,18.60
2022-12-05T07:48:52.766Z,18.75
2022-12-05T07:51:38.963Z,19.75
2022-12-05T07:54:24.432Z,21.73
2022-12-05T07:57:10.015Z,33.78
2022-12-05T07:59:56.331Z,29.25
2022-12-05T08:02:42.054Z,27.65
2022-12-05T08:05:27.943Z,21.45
2022-12-05T08:08:13.933Z,20.33
2022-12-05T08:11:17.509Z,19.92
2022-12-05T08:16:50.145Z,18.63
2022-12-05T08:19:35.641Z,17.30
2022-12-05T08:22:21.753Z,17.63
2022-12-05T08:25:07.809Z,16.88
2022-12-05T08:27:53.613Z,16.63
2022-12-05T08:30:39.281Z,18.08
2022-12-05T08:33:24.999Z,24.63
2022-12-05T08:36:13.370Z,25.40
2022-12-05T08:39:01.364Z,22.25
2022-12-05T08:41:47.782Z,21.50
2022-12-05T08:44:33.480Z,20.08
2022-12-05T08:47:19.468Z,21.80
2022-12-05T08:50:05.346Z,20.20
2022-12-05T08:52:51.166Z,20.30
2022-12-05T08:55:37.049Z,20.33
2022-12-05T08:58:22.619Z,18.88
2022-12-05T09:01:14.065Z,19.98
2022-12-05T09:04:01.208Z,20.42
2022-12-05T09:06:46.832Z,20.45
2022-12-05T09:09:33.599Z,20.42
2022-12-05T09:12:19.582Z,21.08
2022-12-05T09:15:07.451Z,21.02
2022-12-05T09:17:52.836Z,19.55
2022-12-05T09:20:39.820Z,19.25
2022-12-05T09:23:25.344Z,20.38
2022-12-05T09:26:14.380Z,22.63
2022-12-05T09:29:01.396Z,22.67
2022-12-05T09:31:48.861Z,21.27
2022-12-05T09:34:35.042Z,20.38
2022-12-05T09:37:38.887Z,20.83
2022-12-05T09:40:25.426Z,25.40
2022-12-05T09:43:25.559Z,23.42
2022-12-05T09:46:35.888Z,18.42
2022-12-05T09:49:23.657Z,17.88
2022-12-05T09:52:17.872Z,17.80
2022-12-05T09:55:13.984Z,16.52
2022-12-05T09:58:02.431Z,15.98
2022-12-05T10:00:51.891Z,15.75
2022-12-05T10:03:58.235Z,15.80
2022-12-05T10:06:49.239Z,15.02
2022-12-05T10:09:53.974Z,14.07
2022-12-05T10:13:06.354Z,14.00
2022-12-05T10:16:02.933Z,12.90
2022-12-05T10:19:00.972Z,12.85
2022-12-05T10:21:52.521Z,12.80
2022-12-05T10:24:50.410Z,12.95
2022-12-05T10:27:40.268Z,12.07
2022-12-05T10:30:36.073Z,13.40
2022-12-05T10:33:23.935Z,11.63
2022-12-05T10:36:14.634Z,12.43
2022-12-05T10:39:00.566Z,10.43
2022-12-05T10:41:46.470Z,12.02
2022-12-05T10:44:34.040Z,13.45
2022-12-05T10:47:19.552Z,12.85
2022-12-05T10:50:19.916Z,14.50
2022-12-05T10:53:07.141Z,13.40
2022-12-05T10:56:28.057Z,14.13
2022-12-05T10:59:00.531Z,12.00
2022-12-05T11:01:58.677Z,12.45
2022-12-05T11:04:46.126Z,12.93
2022-12-05T11:07:35.405Z,12.07
2022-12-05T11:10:27.916Z,11.57
2022-12-05T11:13:24.928Z,11.75
2022-12-05T11:16:26.992Z,11.82
2022-12-05T11:19:22.024Z,12.32
2022-12-05T11:22:16.484Z,11.88
2022-12-05T11:25:28.443Z,12.38
2022-12-05T11:28:17.440Z,12.35
2022-12-05T11:31:16.854Z,12.60
2022-12-05T11:34:16.759Z,12.50
2022-12-05T11:37:28.415Z,12.50
2022-12-05T11:40:17.325Z,11.50
2022-12-05T11:43:24.331Z,10.70
2022-12-05T11:46:23.593Z,11.10
2022-12-05T11:49:24.061Z,10.80
2022-12-05T11:52:40.477Z,11.30
2022-12-05T11:55:29.392Z,11.38
2022-12-05T11:58:37.343Z,11.13
2022-12-05T12:01:44.635Z,11.25
2022-12-05T12:04:45.701Z,10.23
2022-12-05T12:07:37.400Z,11.20
2022-12-05T12:10:38.370Z,11.85
2022-12-05T12:13:57.755Z,12.60
2022-12-05T12:17:15.792Z,11.00
2022-12-05T12:20:37.871Z,12.52
2022-12-05T12:23:38.281Z,10.50
2022-12-05T12:26:42.472Z,11.52
2022-12-05T12:29:59.120Z,12.98
2022-12-05T12:32:53.861Z,14.18
2022-12-05T12:36:02.915Z,14.73
2022-12-05T12:39:18.212Z,13.65
2022-12-05T12:42:35.489Z,13.85
2022-12-05T12:45:39.658Z,14.63
2022-12-05T12:48:41.318Z,14.27
2022-12-05T12:51:30.165Z,14.18
2022-12-05T12:55:03.838Z,14.60
2022-12-05T12:58:06.115Z,14.15
2022-12-05T13:00:58.367Z,13.55
2022-12-05T13:03:52.356Z,14.05
2022-12-05T13:06:57.836Z,13.60
2022-12-05T13:10:07.910Z,15.23
2022-12-05T13:12:55.534Z,13.30
2022-12-05T13:15:54.641Z,14.27
2022-12-05T13:18:41.221Z,13.38
2022-12-05T13:21:28.480Z,13.50
2022-12-05T13:24:25.452Z,14.02
2022-12-05T13:27:20.456Z,15.25
2022-12-05T13:30:13.421Z,14.52
2022-12-05T13:33:06.934Z,13.70
2022-12-05T13:36:27.173Z,14.45
2022-12-05T13:39:31.728Z,13.10
2022-12-05T13:42:30.416Z,12.52
2022-12-05T13:45:20.144Z,13.68
2022-12-05T13:48:20.735Z,14.02
2022-12-05T13:51:12.027Z,15.15
2022-12-05T13:54:03.742Z,14.70
2022-12-05T13:56:54.177Z,13.13
2022-12-05T14:00:08.097Z,14.25
2022-12-05T14:03:19.624Z,15.77
2022-12-05T14:06:06.975Z,15.38
2022-12-05T14:08:54.056Z,15.45
2022-12-05T14:12:10.593Z,15.70
2022-12-05T14:14:57.170Z,14.50
2022-12-05T14:17:43.957Z,16.02
2022-12-05T14:20:52.613Z,16.55
2022-12-05T14:23:51.772Z,17.33
2022-12-05T14:27:08.506Z,17.77
2022-12-05T14:30:03.304Z,17.02
2022-12-05T14:32:50.401Z,16.30
2022-12-05T14:35:47.758Z,15.27
2022-12-05T14:38:36.675Z,14.05
2022-12-05T14:41:36.155Z,14.50
2022-12-05T14:44:22.294Z,13.40
2022-12-05T14:47:20.115Z,14.13
2022-12-05T14:50:35.009Z,13.38
2022-12-05T14:53:34.924Z,13.85
2022-12-05T14:56:23.620Z,13.73
2022-12-05T14:59:33.488Z,15.15
2022-12-05T15:02:37.052Z,15.35
2022-12-05T15:05:31.390Z,14.18
2022-12-05T15:08:17.872Z,15.10
2022-12-05T15:11:04.541Z,19.27
2022-12-05T15:13:50.866Z,15.68
2022-12-05T15:16:42.578Z,14.45
2022-12-05T15:19:43.372Z,13.35
2022-12-05T15:22:32.178Z,11.85
2022-12-05T15:25:33.209Z,11.75
2022-12-05T15:28:20.235Z,11.35
2022-12-05T15:31:11.787Z,10.80
2022-12-05T15:34:01.215Z,10.23
2022-12-05T15:37:03.971Z,10.73
2022-12-05T15:39:50.208Z,10.45
2022-12-05T15:42:45.816Z,11.32
2022-12-05T15:45:32.050Z,10.65
2022-12-05T15:48:22.922Z,11.00
2022-12-05T15:51:09.130Z,9.75
2022-12-05T15:54:11.852Z,11.60
2022-12-05T15:57:01.878Z,11.90
2022-12-05T16:00:02.888Z,11.77
2022-12-05T16:03:27.415Z,13.55
2022-12-05T16:06:20.316Z,13.23
2022-12-05T16:09:16.976Z,13.05
2022-12-05T16:12:05.677Z,14.82
2022-12-05T16:15:01.696Z,13.98
2022-12-05T16:17:53.061Z,13.80
2022-12-05T16:20:39.263Z,14.00
2022-12-05T16:23:33.420Z,13.65
2022-12-05T16:26:25.064Z,15.55
2022-12-05T16:29:28.190Z,13.45
2022-12-05T16:32:24.457Z,14.05
2022-12-05T16:35:46.145Z,14.65
2022-12-05T16:38:34.861Z,13.35
2022-12-05T16:41:25.280Z,13.45
2022-12-05T16:44:31.632Z,13.95
2022-12-05T16:47:26.270Z,13.57
2022-12-05T16:50:34.989Z,14.13
2022-12-05T16:53:33.170Z,14.30
2022-12-05T16:56:27.516Z,13.32
2022-12-05T16:59:23.363Z,13.02
2022-12-05T17:02:14.797Z,12.80
2022-12-05T17:05:12.233Z,14.73
2022-12-05T17:07:58.486Z,14.80
2022-12-05T17:10:44.656Z,14.05
2022-12-05T17:13:32.535Z,13.48
2022-12-05T17:16:19.315Z,14.23
2022-12-05T17:19:05.446Z,14.55
2022-12-05T17:21:51.825Z,14.68
2022-12-05T17:24:37.980Z,15.90
2022-12-05T17:27:23.903Z,16.60
2022-12-05T17:30:11.577Z,16.92
2022-12-05T17:32:57.695Z,16.20
2022-12-05T17:35:44.033Z,16.95
2022-12-05T17:38:29.595Z,16.50
2022-12-05T17:41:23.399Z,17.65
2022-12-05T17:44:13.734Z,19.40
2022-12-05T17:47:04.423Z,21.42
2022-12-05T17:52:39.060Z,23.50
2022-12-05T17:55:28.485Z,20.80
2022-12-05T17:58:15.179Z,19.90
2022-12-05T18:01:02.517Z,19.42
2022-12-05T18:03:48.882Z,20.17
2022-12-05T18:06:34.733Z,21.92
2022-12-05T18:09:20.523Z,21.38
2022-12-05T18:12:06.575Z,21.35
2022-12-05T18:14:52.391Z,20.45
2022-12-05T18:17:40.665Z,21.70
2022-12-05T18:20:29.818Z,21.30
2022-12-05T18:23:15.560Z,22.50
2022-12-05T18:26:01.532Z,22.23
2022-12-05T18:28:47.558Z,21.00
2022-12-05T18:31:33.422Z,21.45
2022-12-05T18:34:19.313Z,22.48
2022-12-05T18:37:05.039Z,22.48
2022-12-05T18:39:50.838Z,25.63
2022-12-05T18:42:36.987Z,23.58
2022-12-05T18:45:22.611Z,23.30
2022-12-05T18:48:31.447Z,22.58
2022-12-05T18:51:20.818Z,23.50
2022-12-05T18:54:06.828Z,23.17
2022-12-05T18:56:52.895Z,22.30
2022-12-05T18:59:38.719Z,22.75
2022-12-05T19:02:24.703Z,21.83
2022-12-05T19:05:10.168Z,21.83
2022-12-05T19:07:56.093Z,22.13
2022-12-05T19:10:41.745Z,22.13
2022-12-05T19:13:27.530Z,23.33
2022-12-05T19:16:14.626Z,23.00
2022-12-05T19:19:02.297Z,24.80
2022-12-05T19:21:48.384Z,24.30
2022-12-05T19:24:34.203Z,25.00
2022-12-05T19:27:20.454Z,23.25
2022-12-05T19:30:10.116Z,24.67
2022-12-05T19:32:56.272Z,25.70
2022-12-05T19:35:42.099Z,25.83
2022-12-05T19:38:31.556Z,25.88
2022-12-05T19:41:21.451Z,24.27
2022-12-05T19:44:07.263Z,25.48
2022-12-05T19:46:54.640Z,24.52
2022-12-05T19:49:40.295Z,23.92
2022-12-05T19:52:26.665Z,23.75
2022-12-05T19:55:13.206Z,25.50
2022-12-05T19:57:59.144Z,25.33
2022-12-05T20:00:45.164Z,25.45
2022-12-05T20:03:30.744Z,26.08
2022-12-05T20:06:17.539Z,24.77
2022-12-05T20:09:03.665Z,23.83
2022-12-05T20:11:56.039Z,25.15
2022-12-05T20:14:41.848Z,25.07
2022-12-05T20:17:28.335Z,26.38
2022-12-05T20:20:14.172Z,27.20
2022-12-05T20:22:59.618Z,24.77
2022-12-05T20:25:45.977Z,26.02
2022-12-05T20:28:32.528Z,24.50
2022-12-05T20:31:23.410Z,25.25
2022-12-05T20:34:13.901Z,26.45
2022-12-05T20:36:59.690Z,26.55
2022-12-05T20:39:45.646Z,26.02
2022-12-05T20:42:31.495Z,26.30
2022-12-05T20:45:17.754Z,26.33
2022-12-05T20:48:03.695Z,25.85
2022-12-05T20:50:49.275Z,25.63
2022-12-05T20:53:37.111Z,25.92
2022-12-05T20:56:31.806Z,25.25
2022-12-05T20:59:17.741Z,25.23
2022-12-05T21:02:03.688Z,24.58
2022-12-05T21:04:49.626Z,24.95
2022-12-05T21:07:35.033Z,25.33
2022-12-05T21:10:21.183Z,24.55
2022-12-05T21:13:07.338Z,25.33
2022-12-05T21:15:52.912Z,25.38
2022-12-05T21:18:39.718Z,26.33
2022-12-05T21:21:28.094Z,25.98
2022-12-05T21:24:14.208Z,26.95
2022-12-05T21:26:59.861Z,25.25
2022-12-05T21:29:45.739Z,24.85
2022-12-05T21:32:31.448Z,24.38
2022-12-05T21:35:17.260Z,22.75
2022-12-05T21:38:03.403Z,23.27
2022-12-05T21:40:48.768Z,23.95
2022-12-05T21:43:35.681Z,24.40
2022-12-05T21:46:21.651Z,24.88
2022-12-05T21:49:07.902Z,23.77
2022-12-05T21:51:53.956Z,25.58
2022-12-05T21:54:39.251Z,23.45
2022-12-05T21:57:24.917Z,20.38
2022-12-05T22:00:10.979Z,20.13
2022-12-05T22:02:56.584Z,18.33
2022-12-05T22:05:42.503Z,19.10
2022-12-05T22:08:29.974Z,19.08
2022-12-05T22:11:19.736Z,17.40
2022-12-05T22:14:05.762Z,17.45
2022-12-05T22:16:51.649Z,16.08
2022-12-05T22:19:37.350Z,17.92
2022-12-05T22:22:23.646Z,18.25
2022-12-05T22:25:10.502Z,18.20
2022-12-05T22:27:56.832Z,17.27
2022-12-05T22:30:47.058Z,16.70
2022-12-05T22:33:35.611Z,17.17
2022-12-05T22:36:21.675Z,20.30
2022-12-05T22:39:07.563Z,20.45
2022-12-05T22:41:53.157Z,19.58
2022-12-05T22:44:38.971Z,20.27
2022-12-05T22:47:24.476Z,20.00
2022-12-05T22:50:10.417Z,20.70
2022-12-05T22:52:56.223Z,19.63
2022-12-05T22:55:41.816Z,19.70
2022-12-05T22:58:27.933Z,17.95
2022-12-05T23:01:21.207Z,17.90
2022-12-05T23:04:10.676Z,18.67
2022-12-05T23:06:56.566Z,17.05
2022-12-05T23:09:42.045Z,16.63
2022-12-05T23:12:28.152Z,16.48
2022-12-05T23:15:14.201Z,16.65
2022-12-05T23:18:00.250Z,16.52
2022-12-05T23:20:46.432Z,18.10
2022-12-05T23:23:31.940Z,17.65
2022-12-05T23:26:18.720Z,17.20
2022-12-05T23:29:04.592Z,17.52
2022-12-05T23:31:50.092Z,17.10
2022-12-05T23:34:35.900Z,16.90
2022-12-05T23:37:21.853Z,17.15
2022-12-05T23:40:08.520Z,16.27
2022-12-05T23:42:54.064Z,15.90
2022-12-05T23:45:39.904Z,15.98
2022-12-05T23:48:26.027Z,15.50
2022-12-05T23:51:17.991Z,16.02
2022-12-05T23:54:04.172Z,15.73
2022-12-05T23:56:49.838Z,16.10
2022-12-05T23:59:35.774Z,15.55
